sensor_id;sensor_type;location;lat;lon;timestamp;P1;durP1;ratioP1;P2;durP2;ratioP2
21360;SDS011;10839;43.206;23.550;2023-02-15T00:01:39;39.05;;;19.50;;
21360;SDS011;10839;43.206;23.550;2023-02-15T00:04:05;39.30;;;18.55;;
21360;SDS011;10839;43.206;23.550;2023-02-15T00:06:32;45.38;;;23.48;;
21360;SDS011;10839;43.206;23.550;2023-02-15T00:08:58;38.67;;;19.35;;
21360;SDS011;10839;43.206;23.550;2023-02-15T00:11:25;35.63;;;18.85;;
21360;SDS011;10839;43.206;23.550;2023-02-15T00:16:46;34.28;;;17.85;;
21360;SDS011;10839;43.206;23.550;2023-02-15T00:19:14;32.92;;;16.52;;
21360;SDS011;10839;43.206;23.550;2023-02-15T00:21:42;36.90;;;18.02;;
21360;SDS011;10839;43.206;23.550;2023-02-15T00:24:10;48.70;;;20.63;;
21360;SDS011;10839;43.206;23.550;2023-02-15T00:26:37;57.55;;;22.20;;
21360;SDS011;10839;43.206;23.550;2023-02-15T00:29:05;52.88;;;20.95;;
21360;SDS011;10839;43.206;23.550;2023-02-15T00:31:32;52.33;;;20.67;;
21360;SDS011;10839;43.206;23.550;2023-02-15T00:38:59;40.90;;;17.75;;
21360;SDS011;10839;43.206;23.550;2023-02-15T00:41:25;32.25;;;16.25;;
21360;SDS011;10839;43.206;23.550;2023-02-15T00:43:51;32.47;;;16.02;;
21360;SDS011;10839;43.206;23.550;2023-02-15T00:46:17;37.85;;;17.63;;
21360;SDS011;10839;43.206;23.550;2023-02-15T00:48:44;40.15;;;18.10;;
21360;SDS011;10839;43.206;23.550;2023-02-15T00:51:10;43.85;;;19.77;;
21360;SDS011;10839;43.206;23.550;2023-02-15T00:53:35;39.90;;;17.92;;
21360;SDS011;10839;43.206;23.550;2023-02-15T00:56:01;35.22;;;18.48;;
21360;SDS011;10839;43.206;23.550;2023-02-15T00:58:27;35.63;;;18.15;;
21360;SDS011;10839;43.206;23.550;2023-02-15T01:00:53;36.47;;;17.75;;
21360;SDS011;10839;43.206;23.550;2023-02-15T01:03:19;43.33;;;20.40;;
21360;SDS011;10839;43.206;23.550;2023-02-15T01:05:47;43.90;;;20.52;;
21360;SDS011;10839;43.206;23.550;2023-02-15T01:08:14;45.80;;;19.33;;
21360;SDS011;10839;43.206;23.550;2023-02-15T01:10:40;42.90;;;18.83;;
21360;SDS011;10839;43.206;23.550;2023-02-15T01:13:07;37.78;;;18.48;;
21360;SDS011;10839;43.206;23.550;2023-02-15T01:15:34;38.42;;;18.52;;
21360;SDS011;10839;43.206;23.550;2023-02-15T01:18:00;40.50;;;18.63;;
21360;SDS011;10839;43.206;23.550;2023-02-15T01:20:27;34.97;;;18.42;;
21360;SDS011;10839;43.206;23.550;2023-02-15T01:22:54;40.53;;;18.48;;
21360;SDS011;10839;43.206;23.550;2023-02-15T01:25:22;47.50;;;21.02;;
21360;SDS011;10839;43.206;23.550;2023-02-15T01:27:49;44.97;;;21.45;;
21360;SDS011;10839;43.206;23.550;2023-02-15T01:30:15;41.53;;;18.98;;
21360;SDS011;10839;43.206;23.550;2023-02-15T01:32:42;43.60;;;20.13;;
21360;SDS011;10839;43.206;23.550;2023-02-15T01:35:09;40.03;;;17.88;;
21360;SDS011;10839;43.206;23.550;2023-02-15T01:37:36;37.65;;;18.00;;
21360;SDS011;10839;43.206;23.550;2023-02-15T01:40:04;41.63;;;19.33;;
21360;SDS011;10839;43.206;23.550;2023-02-15T01:42:32;37.15;;;17.88;;
21360;SDS011;10839;43.206;23.550;2023-02-15T01:47:39;36.13;;;17.88;;
21360;SDS011;10839;43.206;23.550;2023-02-15T01:52:55;32.40;;;16.80;;
21360;SDS011;10839;43.206;23.550;2023-02-15T01:55:40;33.75;;;16.40;;
21360;SDS011;10839;43.206;23.550;2023-02-15T01:58:14;33.60;;;16.10;;
21360;SDS011;10839;43.206;23.550;2023-02-15T02:00:40;34.90;;;17.02;;
21360;SDS011;10839;43.206;23.550;2023-02-15T02:03:06;33.17;;;17.30;;
21360;SDS011;10839;43.206;23.550;2023-02-15T02:05:32;36.05;;;16.90;;
21360;SDS011;10839;43.206;23.550;2023-02-15T02:07:59;34.10;;;18.00;;
21360;SDS011;10839;43.206;23.550;2023-02-15T02:10:27;36.65;;;17.30;;
21360;SDS011;10839;43.206;23.550;2023-02-15T02:12:59;33.72;;;17.88;;
21360;SDS011;10839;43.206;23.550;2023-02-15T02:18:41;37.92;;;17.70;;
21360;SDS011;10839;43.206;23.550;2023-02-15T02:34:58;32.47;;;16.50;;
21360;SDS011;10839;43.206;23.550;2023-02-15T02:40:32;38.70;;;17.13;;
21360;SDS011;10839;43.206;23.550;2023-02-15T02:45:53;35.00;;;15.88;;
21360;SDS011;10839;43.206;23.550;2023-02-15T02:48:24;33.20;;;16.08;;
21360;SDS011;10839;43.206;23.550;2023-02-15T02:50:53;26.07;;;13.03;;
21360;SDS011;10839;43.206;23.550;2023-02-15T02:53:19;30.40;;;15.20;;
21360;SDS011;10839;43.206;23.550;2023-02-15T02:55:46;42.33;;;21.45;;
21360;SDS011;10839;43.206;23.550;2023-02-15T02:58:28;38.08;;;19.02;;
21360;SDS011;10839;43.206;23.550;2023-02-15T03:01:04;36.22;;;16.48;;
21360;SDS011;10839;43.206;23.550;2023-02-15T03:06:18;31.05;;;14.57;;
21360;SDS011;10839;43.206;23.550;2023-02-15T03:08:58;28.08;;;14.32;;
21360;SDS011;10839;43.206;23.550;2023-02-15T03:11:31;27.85;;;13.55;;
21360;SDS011;10839;43.206;23.550;2023-02-15T03:13:58;29.35;;;13.93;;
21360;SDS011;10839;43.206;23.550;2023-02-15T03:16:25;30.92;;;14.80;;
21360;SDS011;10839;43.206;23.550;2023-02-15T03:18:57;33.05;;;15.00;;
21360;SDS011;10839;43.206;23.550;2023-02-15T03:21:33;32.22;;;15.00;;
21360;SDS011;10839;43.206;23.550;2023-02-15T03:24:10;31.75;;;15.75;;
21360;SDS011;10839;43.206;23.550;2023-02-15T03:26:42;30.83;;;15.50;;
21360;SDS011;10839;43.206;23.550;2023-02-15T03:29:11;28.92;;;14.50;;
21360;SDS011;10839;43.206;23.550;2023-02-15T03:31:40;30.70;;;14.65;;
21360;SDS011;10839;43.206;23.550;2023-02-15T03:34:10;33.58;;;15.98;;
21360;SDS011;10839;43.206;23.550;2023-02-15T03:39:45;39.50;;;17.60;;
21360;SDS011;10839;43.206;23.550;2023-02-15T03:42:43;28.00;;;13.77;;
21360;SDS011;10839;43.206;23.550;2023-02-15T03:45:14;28.65;;;14.13;;
21360;SDS011;10839;43.206;23.550;2023-02-15T03:47:44;29.70;;;15.25;;
21360;SDS011;10839;43.206;23.550;2023-02-15T03:50:31;31.88;;;14.60;;
21360;SDS011;10839;43.206;23.550;2023-02-15T03:53:21;30.35;;;14.82;;
21360;SDS011;10839;43.206;23.550;2023-02-15T03:55:49;45.78;;;20.05;;
21360;SDS011;10839;43.206;23.550;2023-02-15T03:58:18;54.03;;;24.42;;
21360;SDS011;10839;43.206;23.550;2023-02-15T04:01:47;32.42;;;15.73;;
21360;SDS011;10839;43.206;23.550;2023-02-15T04:04:23;31.67;;;14.88;;
21360;SDS011;10839;43.206;23.550;2023-02-15T04:06:49;27.88;;;14.45;;
21360;SDS011;10839;43.206;23.550;2023-02-15T04:09:15;29.30;;;14.10;;
21360;SDS011;10839;43.206;23.550;2023-02-15T04:12:00;30.05;;;14.75;;
21360;SDS011;10839;43.206;23.550;2023-02-15T04:14:25;27.75;;;14.10;;
21360;SDS011;10839;43.206;23.550;2023-02-15T04:17:10;31.08;;;15.57;;
21360;SDS011;10839;43.206;23.550;2023-02-15T04:19:35;78.50;;;35.38;;
21360;SDS011;10839;43.206;23.550;2023-02-15T04:22:19;47.20;;;22.48;;
21360;SDS011;10839;43.206;23.550;2023-02-15T04:27:39;36.38;;;17.58;;
21360;SDS011;10839;43.206;23.550;2023-02-15T04:30:24;36.03;;;16.80;;
21360;SDS011;10839;43.206;23.550;2023-02-15T04:32:51;31.58;;;15.43;;
21360;SDS011;10839;43.206;23.550;2023-02-15T04:35:19;33.88;;;15.68;;
21360;SDS011;10839;43.206;23.550;2023-02-15T04:37:45;32.13;;;15.68;;
21360;SDS011;10839;43.206;23.550;2023-02-15T04:40:12;26.60;;;14.13;;
21360;SDS011;10839;43.206;23.550;2023-02-15T04:42:39;28.48;;;14.27;;
21360;SDS011;10839;43.206;23.550;2023-02-15T04:45:05;30.30;;;14.48;;
21360;SDS011;10839;43.206;23.550;2023-02-15T04:47:31;26.17;;;14.18;;
21360;SDS011;10839;43.206;23.550;2023-02-15T04:49:57;26.42;;;13.50;;
21360;SDS011;10839;43.206;23.550;2023-02-15T04:52:23;29.08;;;15.43;;
21360;SDS011;10839;43.206;23.550;2023-02-15T04:54:49;35.15;;;16.58;;
21360;SDS011;10839;43.206;23.550;2023-02-15T04:57:14;31.50;;;16.30;;
21360;SDS011;10839;43.206;23.550;2023-02-15T04:59:40;39.80;;;18.58;;
21360;SDS011;10839;43.206;23.550;2023-02-15T05:02:06;41.05;;;19.77;;
21360;SDS011;10839;43.206;23.550;2023-02-15T05:04:32;84.43;;;39.63;;
21360;SDS011;10839;43.206;23.550;2023-02-15T05:06:58;40.17;;;21.02;;
21360;SDS011;10839;43.206;23.550;2023-02-15T05:09:24;55.80;;;25.00;;
21360;SDS011;10839;43.206;23.550;2023-02-15T05:11:50;39.65;;;19.70;;
21360;SDS011;10839;43.206;23.550;2023-02-15T05:14:16;37.53;;;18.25;;
21360;SDS011;10839;43.206;23.550;2023-02-15T05:16:42;36.97;;;18.92;;
21360;SDS011;10839;43.206;23.550;2023-02-15T05:19:07;36.85;;;17.08;;
21360;SDS011;10839;43.206;23.550;2023-02-15T05:21:33;26.08;;;13.45;;
21360;SDS011;10839;43.206;23.550;2023-02-15T05:24:00;24.73;;;12.35;;
21360;SDS011;10839;43.206;23.550;2023-02-15T05:26:25;25.52;;;12.98;;
21360;SDS011;10839;43.206;23.550;2023-02-15T05:29:10;26.13;;;13.20;;
21360;SDS011;10839;43.206;23.550;2023-02-15T05:31:36;26.35;;;13.18;;
21360;SDS011;10839;43.206;23.550;2023-02-15T05:34:02;28.80;;;13.40;;
21360;SDS011;10839;43.206;23.550;2023-02-15T05:36:28;29.80;;;14.32;;
21360;SDS011;10839;43.206;23.550;2023-02-15T05:38:55;27.83;;;13.55;;
21360;SDS011;10839;43.206;23.550;2023-02-15T05:41:21;30.38;;;14.30;;
21360;SDS011;10839;43.206;23.550;2023-02-15T05:43:47;27.38;;;13.43;;
21360;SDS011;10839;43.206;23.550;2023-02-15T05:46:13;28.65;;;14.07;;
21360;SDS011;10839;43.206;23.550;2023-02-15T05:48:39;30.65;;;14.57;;
21360;SDS011;10839;43.206;23.550;2023-02-15T05:51:05;27.10;;;13.73;;
21360;SDS011;10839;43.206;23.550;2023-02-15T05:53:38;31.02;;;15.63;;
21360;SDS011;10839;43.206;23.550;2023-02-15T05:56:05;30.88;;;15.68;;
21360;SDS011;10839;43.206;23.550;2023-02-15T05:58:34;36.53;;;18.35;;
21360;SDS011;10839;43.206;23.550;2023-02-15T06:01:13;33.95;;;17.65;;
21360;SDS011;10839;43.206;23.550;2023-02-15T06:03:41;25.80;;;13.98;;
21360;SDS011;10839;43.206;23.550;2023-02-15T06:06:07;23.60;;;13.45;;
21360;SDS011;10839;43.206;23.550;2023-02-15T06:08:33;26.30;;;14.95;;
21360;SDS011;10839;43.206;23.550;2023-02-15T06:11:00;26.25;;;14.23;;
21360;SDS011;10839;43.206;23.550;2023-02-15T06:13:26;30.08;;;16.70;;
21360;SDS011;10839;43.206;23.550;2023-02-15T06:15:52;36.58;;;19.63;;
21360;SDS011;10839;43.206;23.550;2023-02-15T06:18:18;33.80;;;19.27;;
21360;SDS011;10839;43.206;23.550;2023-02-15T06:20:47;35.53;;;20.38;;
21360;SDS011;10839;43.206;23.550;2023-02-15T06:23:14;33.55;;;19.73;;
21360;SDS011;10839;43.206;23.550;2023-02-15T06:25:40;32.38;;;19.60;;
21360;SDS011;10839;43.206;23.550;2023-02-15T06:28:06;37.08;;;20.70;;
21360;SDS011;10839;43.206;23.550;2023-02-15T06:30:32;37.47;;;22.73;;
21360;SDS011;10839;43.206;23.550;2023-02-15T06:32:58;38.35;;;24.33;;
21360;SDS011;10839;43.206;23.550;2023-02-15T06:35:24;35.70;;;22.15;;
21360;SDS011;10839;43.206;23.550;2023-02-15T06:37:50;34.42;;;22.30;;
21360;SDS011;10839;43.206;23.550;2023-02-15T06:40:16;31.98;;;21.45;;
21360;SDS011;10839;43.206;23.550;2023-02-15T06:42:42;34.35;;;21.50;;
21360;SDS011;10839;43.206;23.550;2023-02-15T06:45:09;32.17;;;21.38;;
21360;SDS011;10839;43.206;23.550;2023-02-15T06:47:35;30.42;;;20.58;;
21360;SDS011;10839;43.206;23.550;2023-02-15T06:50:02;26.85;;;17.38;;
21360;SDS011;10839;43.206;23.550;2023-02-15T06:52:29;27.23;;;16.60;;
21360;SDS011;10839;43.206;23.550;2023-02-15T06:54:55;25.20;;;16.50;;
21360;SDS011;10839;43.206;23.550;2023-02-15T06:57:20;23.27;;;15.93;;
21360;SDS011;10839;43.206;23.550;2023-02-15T06:59:46;23.05;;;15.73;;
21360;SDS011;10839;43.206;23.550;2023-02-15T07:02:13;24.38;;;16.05;;
21360;SDS011;10839;43.206;23.550;2023-02-15T07:04:40;21.27;;;15.70;;
21360;SDS011;10839;43.206;23.550;2023-02-15T07:07:09;22.67;;;15.38;;
21360;SDS011;10839;43.206;23.550;2023-02-15T07:09:37;22.38;;;16.08;;
21360;SDS011;10839;43.206;23.550;2023-02-15T07:12:04;24.40;;;17.45;;
21360;SDS011;10839;43.206;23.550;2023-02-15T07:14:49;38.55;;;23.15;;
21360;SDS011;10839;43.206;23.550;2023-02-15T07:17:15;25.83;;;17.85;;
21360;SDS011;10839;43.206;23.550;2023-02-15T07:19:42;21.00;;;14.77;;
21360;SDS011;10839;43.206;23.550;2023-02-15T07:22:08;19.35;;;14.73;;
21360;SDS011;10839;43.206;23.550;2023-02-15T07:24:34;22.90;;;16.20;;
21360;SDS011;10839;43.206;23.550;2023-02-15T07:27:00;35.33;;;20.20;;
21360;SDS011;10839;43.206;23.550;2023-02-15T07:29:25;26.23;;;16.80;;
21360;SDS011;10839;43.206;23.550;2023-02-15T07:31:51;24.05;;;16.52;;
21360;SDS011;10839;43.206;23.550;2023-02-15T07:34:17;23.58;;;15.90;;
21360;SDS011;10839;43.206;23.550;2023-02-15T07:36:43;22.60;;;16.42;;
21360;SDS011;10839;43.206;23.550;2023-02-15T07:39:10;23.42;;;17.73;;
21360;SDS011;10839;43.206;23.550;2023-02-15T07:41:36;24.95;;;18.13;;
21360;SDS011;10839;43.206;23.550;2023-02-15T07:44:13;26.58;;;18.55;;
21360;SDS011;10839;43.206;23.550;2023-02-15T07:46:40;25.13;;;18.67;;
21360;SDS011;10839;43.206;23.550;2023-02-15T07:49:06;27.88;;;18.50;;
21360;SDS011;10839;43.206;23.550;2023-02-15T07:51:32;25.00;;;17.35;;
21360;SDS011;10839;43.206;23.550;2023-02-15T07:53:58;27.33;;;17.20;;
21360;SDS011;10839;43.206;23.550;2023-02-15T07:56:23;24.67;;;16.50;;
21360;SDS011;10839;43.206;23.550;2023-02-15T07:58:49;24.92;;;18.30;;
21360;SDS011;10839;43.206;23.550;2023-02-15T08:01:19;32.05;;;17.75;;
21360;SDS011;10839;43.206;23.550;2023-02-15T08:03:50;27.15;;;18.55;;
21360;SDS011;10839;43.206;23.550;2023-02-15T08:06:16;23.75;;;16.52;;
21360;SDS011;10839;43.206;23.550;2023-02-15T08:08:42;26.02;;;16.48;;
21360;SDS011;10839;43.206;23.550;2023-02-15T08:14:02;28.23;;;17.50;;
21360;SDS011;10839;43.206;23.550;2023-02-15T08:16:34;25.67;;;16.75;;
21360;SDS011;10839;43.206;23.550;2023-02-15T08:19:05;24.92;;;16.17;;
21360;SDS011;10839;43.206;23.550;2023-02-15T08:21:36;26.97;;;17.60;;
21360;SDS011;10839;43.206;23.550;2023-02-15T08:24:04;22.40;;;15.23;;
21360;SDS011;10839;43.206;23.550;2023-02-15T08:26:31;24.90;;;15.85;;
21360;SDS011;10839;43.206;23.550;2023-02-15T08:28:57;24.05;;;16.60;;
21360;SDS011;10839;43.206;23.550;2023-02-15T08:31:24;24.30;;;16.05;;
21360;SDS011;10839;43.206;23.550;2023-02-15T08:33:51;25.27;;;17.40;;
21360;SDS011;10839;43.206;23.550;2023-02-15T08:36:19;26.45;;;17.83;;
21360;SDS011;10839;43.206;23.550;2023-02-15T08:38:47;25.92;;;17.65;;
21360;SDS011;10839;43.206;23.550;2023-02-15T08:43:46;30.48;;;18.27;;
21360;SDS011;10839;43.206;23.550;2023-02-15T08:46:14;32.40;;;18.35;;
21360;SDS011;10839;43.206;23.550;2023-02-15T08:48:41;31.13;;;18.63;;
21360;SDS011;10839;43.206;23.550;2023-02-15T08:51:26;28.35;;;17.02;;
21360;SDS011;10839;43.206;23.550;2023-02-15T08:53:55;27.73;;;16.92;;
21360;SDS011;10839;43.206;23.550;2023-02-15T08:56:23;32.95;;;16.30;;
21360;SDS011;10839;43.206;23.550;2023-02-15T08:58:51;33.55;;;18.63;;
21360;SDS011;10839;43.206;23.550;2023-02-15T09:01:19;29.05;;;15.85;;
21360;SDS011;10839;43.206;23.550;2023-02-15T09:03:48;26.58;;;16.50;;
21360;SDS011;10839;43.206;23.550;2023-02-15T09:06:18;32.42;;;17.10;;
21360;SDS011;10839;43.206;23.550;2023-02-15T09:08:45;33.97;;;17.52;;
21360;SDS011;10839;43.206;23.550;2023-02-15T09:11:17;24.52;;;16.52;;
21360;SDS011;10839;43.206;23.550;2023-02-15T09:16:22;32.15;;;17.45;;
21360;SDS011;10839;43.206;23.550;2023-02-15T09:18:49;24.58;;;15.88;;
21360;SDS011;10839;43.206;23.550;2023-02-15T09:21:17;25.50;;;13.77;;
21360;SDS011;10839;43.206;23.550;2023-02-15T09:23:46;27.50;;;15.50;;
21360;SDS011;10839;43.206;23.550;2023-02-15T09:26:15;23.10;;;16.30;;
21360;SDS011;10839;43.206;23.550;2023-02-15T09:28:42;32.92;;;20.55;;
21360;SDS011;10839;43.206;23.550;2023-02-15T09:31:10;51.08;;;27.05;;
21360;SDS011;10839;43.206;23.550;2023-02-15T09:33:40;40.80;;;23.05;;
21360;SDS011;10839;43.206;23.550;2023-02-15T09:36:15;35.75;;;18.80;;
21360;SDS011;10839;43.206;23.550;2023-02-15T09:38:43;37.33;;;21.92;;
21360;SDS011;10839;43.206;23.550;2023-02-15T09:41:17;35.00;;;19.35;;
21360;SDS011;10839;43.206;23.550;2023-02-15T09:52:24;42.90;;;24.83;;
21360;SDS011;10839;43.206;23.550;2023-02-15T09:55:14;40.03;;;24.27;;
21360;SDS011;10839;43.206;23.550;2023-02-15T09:57:50;30.17;;;17.70;;
21360;SDS011;10839;43.206;23.550;2023-02-15T10:28:07;27.42;;;18.50;;
21360;SDS011;10839;43.206;23.550;2023-02-15T10:36:02;32.22;;;19.70;;
21360;SDS011;10839;43.206;23.550;2023-02-15T10:38:58;40.95;;;25.40;;
21360;SDS011;10839;43.206;23.550;2023-02-15T10:41:35;49.30;;;29.67;;
21360;SDS011;10839;43.206;23.550;2023-02-15T11:06:19;33.40;;;19.10;;
21360;SDS011;10839;43.206;23.550;2023-02-15T11:08:55;31.60;;;18.90;;
21360;SDS011;10839;43.206;23.550;2023-02-15T11:11:27;26.67;;;16.63;;
21360;SDS011;10839;43.206;23.550;2023-02-15T11:14:05;25.30;;;16.55;;
21360;SDS011;10839;43.206;23.550;2023-02-15T11:16:55;24.65;;;16.58;;
21360;SDS011;10839;43.206;23.550;2023-02-15T11:19:32;33.17;;;17.15;;
21360;SDS011;10839;43.206;23.550;2023-02-15T11:22:04;27.30;;;17.10;;
21360;SDS011;10839;43.206;23.550;2023-02-15T11:24:32;26.88;;;16.20;;
21360;SDS011;10839;43.206;23.550;2023-02-15T11:27:15;31.48;;;17.15;;
21360;SDS011;10839;43.206;23.550;2023-02-15T11:29:59;28.67;;;16.52;;
21360;SDS011;10839;43.206;23.550;2023-02-15T11:32:35;31.92;;;16.83;;
21360;SDS011;10839;43.206;23.550;2023-02-15T11:37:45;27.83;;;17.25;;
21360;SDS011;10839;43.206;23.550;2023-02-15T11:40:15;29.63;;;17.63;;
21360;SDS011;10839;43.206;23.550;2023-02-15T11:45:31;30.35;;;17.30;;
21360;SDS011;10839;43.206;23.550;2023-02-15T11:48:05;30.15;;;17.90;;
21360;SDS011;10839;43.206;23.550;2023-02-15T11:50:36;28.17;;;17.33;;
21360;SDS011;10839;43.206;23.550;2023-02-15T11:53:04;25.98;;;16.38;;
21360;SDS011;10839;43.206;23.550;2023-02-15T11:55:37;37.50;;;18.08;;
21360;SDS011;10839;43.206;23.550;2023-02-15T12:00:50;26.17;;;15.95;;
21360;SDS011;10839;43.206;23.550;2023-02-15T12:06:29;27.50;;;15.88;;
21360;SDS011;10839;43.206;23.550;2023-02-15T12:09:13;29.00;;;16.38;;
21360;SDS011;10839;43.206;23.550;2023-02-15T12:14:57;34.97;;;17.35;;
21360;SDS011;10839;43.206;23.550;2023-02-15T12:17:26;25.85;;;15.65;;
21360;SDS011;10839;43.206;23.550;2023-02-15T12:19:56;32.13;;;16.52;;
21360;SDS011;10839;43.206;23.550;2023-02-15T12:22:29;29.63;;;16.88;;
21360;SDS011;10839;43.206;23.550;2023-02-15T12:24:58;28.05;;;16.80;;
21360;SDS011;10839;43.206;23.550;2023-02-15T12:27:27;29.83;;;17.60;;
21360;SDS011;10839;43.206;23.550;2023-02-15T12:29:58;27.35;;;16.85;;
21360;SDS011;10839;43.206;23.550;2023-02-15T12:32:28;26.23;;;16.08;;
21360;SDS011;10839;43.206;23.550;2023-02-15T12:35:14;27.55;;;16.40;;
21360;SDS011;10839;43.206;23.550;2023-02-15T12:37:54;28.70;;;16.20;;
21360;SDS011;10839;43.206;23.550;2023-02-15T12:40:23;33.95;;;17.05;;
21360;SDS011;10839;43.206;23.550;2023-02-15T12:42:53;29.42;;;17.30;;
21360;SDS011;10839;43.206;23.550;2023-02-15T12:45:21;73.53;;;40.45;;
21360;SDS011;10839;43.206;23.550;2023-02-15T12:47:47;29.80;;;17.55;;
21360;SDS011;10839;43.206;23.550;2023-02-15T12:50:53;32.92;;;17.60;;
21360;SDS011;10839;43.206;23.550;2023-02-15T12:53:34;31.20;;;17.25;;
21360;SDS011;10839;43.206;23.550;2023-02-15T12:56:06;32.65;;;18.60;;
21360;SDS011;10839;43.206;23.550;2023-02-15T12:58:34;63.40;;;34.70;;
21360;SDS011;10839;43.206;23.550;2023-02-15T13:06:27;32.92;;;17.25;;
21360;SDS011;10839;43.206;23.550;2023-02-15T13:09:11;37.10;;;20.00;;
21360;SDS011;10839;43.206;23.550;2023-02-15T13:11:41;29.83;;;17.88;;
21360;SDS011;10839;43.206;23.550;2023-02-15T13:14:24;33.05;;;18.27;;
21360;SDS011;10839;43.206;23.550;2023-02-15T13:16:58;32.33;;;18.33;;
21360;SDS011;10839;43.206;23.550;2023-02-15T13:22:08;32.50;;;19.20;;
21360;SDS011;10839;43.206;23.550;2023-02-15T13:24:43;31.33;;;17.20;;
21360;SDS011;10839;43.206;23.550;2023-02-15T13:27:16;28.85;;;17.27;;
21360;SDS011;10839;43.206;23.550;2023-02-15T13:34:57;33.42;;;18.70;;
21360;SDS011;10839;43.206;23.550;2023-02-15T13:40:15;36.08;;;20.17;;
21360;SDS011;10839;43.206;23.550;2023-02-15T13:56:25;30.38;;;17.25;;
21360;SDS011;10839;43.206;23.550;2023-02-15T14:04:46;32.80;;;18.75;;
21360;SDS011;10839;43.206;23.550;2023-02-15T14:17:48;42.50;;;22.92;;
21360;SDS011;10839;43.206;23.550;2023-02-15T14:20:36;42.40;;;23.20;;
21360;SDS011;10839;43.206;23.550;2023-02-15T14:25:55;42.85;;;23.05;;
21360;SDS011;10839;43.206;23.550;2023-02-15T14:31:08;45.70;;;23.23;;
21360;SDS011;10839;43.206;23.550;2023-02-15T14:33:43;56.17;;;24.80;;
21360;SDS011;10839;43.206;23.550;2023-02-15T14:36:21;44.03;;;23.75;;
21360;SDS011;10839;43.206;23.550;2023-02-15T14:41:53;66.50;;;32.08;;
21360;SDS011;10839;43.206;23.550;2023-02-15T14:44:39;70.85;;;36.60;;
21360;SDS011;10839;43.206;23.550;2023-02-15T14:47:21;68.32;;;32.08;;
21360;SDS011;10839;43.206;23.550;2023-02-15T14:58:57;85.90;;;43.30;;
21360;SDS011;10839;43.206;23.550;2023-02-15T15:06:55;81.30;;;36.88;;
21360;SDS011;10839;43.206;23.550;2023-02-15T15:09:43;80.53;;;36.47;;
21360;SDS011;10839;43.206;23.550;2023-02-15T15:14:52;131.75;;;53.17;;
21360;SDS011;10839;43.206;23.550;2023-02-15T15:22:50;109.60;;;48.28;;
21360;SDS011;10839;43.206;23.550;2023-02-15T15:25:40;88.13;;;39.38;;
21360;SDS011;10839;43.206;23.550;2023-02-15T15:31:04;75.07;;;37.30;;
21360;SDS011;10839;43.206;23.550;2023-02-15T15:42:20;63.08;;;32.60;;
21360;SDS011;10839;43.206;23.550;2023-02-15T15:50:25;59.70;;;29.88;;
21360;SDS011;10839;43.206;23.550;2023-02-15T15:52:55;53.25;;;27.13;;
21360;SDS011;10839;43.206;23.550;2023-02-15T15:55:25;51.47;;;27.05;;
21360;SDS011;10839;43.206;23.550;2023-02-15T15:57:53;50.90;;;26.65;;
21360;SDS011;10839;43.206;23.550;2023-02-15T16:03:30;50.55;;;26.00;;
21360;SDS011;10839;43.206;23.550;2023-02-15T16:05:56;50.13;;;25.90;;
21360;SDS011;10839;43.206;23.550;2023-02-15T16:08:26;47.50;;;25.50;;
21360;SDS011;10839;43.206;23.550;2023-02-15T16:10:53;44.92;;;23.00;;
21360;SDS011;10839;43.206;23.550;2023-02-15T16:13:19;45.88;;;23.90;;
21360;SDS011;10839;43.206;23.550;2023-02-15T16:15:46;46.50;;;23.95;;
21360;SDS011;10839;43.206;23.550;2023-02-15T16:18:18;50.17;;;24.23;;
21360;SDS011;10839;43.206;23.550;2023-02-15T16:20:59;52.58;;;25.52;;
21360;SDS011;10839;43.206;23.550;2023-02-15T16:26:14;44.00;;;22.67;;
21360;SDS011;10839;43.206;23.550;2023-02-15T16:29:12;45.80;;;23.85;;
21360;SDS011;10839;43.206;23.550;2023-02-15T16:31:56;44.55;;;22.92;;
21360;SDS011;10839;43.206;23.550;2023-02-15T16:34:26;39.25;;;20.70;;
21360;SDS011;10839;43.206;23.550;2023-02-15T16:39:42;33.63;;;17.33;;
21360;SDS011;10839;43.206;23.550;2023-02-15T16:42:13;36.78;;;19.58;;
21360;SDS011;10839;43.206;23.550;2023-02-15T16:44:41;38.80;;;19.20;;
21360;SDS011;10839;43.206;23.550;2023-02-15T16:47:16;42.42;;;20.65;;
21360;SDS011;10839;43.206;23.550;2023-02-15T16:49:47;49.30;;;22.67;;
21360;SDS011;10839;43.206;23.550;2023-02-15T16:52:18;47.75;;;23.10;;
21360;SDS011;10839;43.206;23.550;2023-02-15T16:54:48;47.08;;;22.60;;
21360;SDS011;10839;43.206;23.550;2023-02-15T16:57:22;45.08;;;22.35;;
21360;SDS011;10839;43.206;23.550;2023-02-15T16:59:52;48.92;;;24.50;;
21360;SDS011;10839;43.206;23.550;2023-02-15T17:02:25;61.90;;;27.80;;
21360;SDS011;10839;43.206;23.550;2023-02-15T17:05:13;67.75;;;33.33;;
21360;SDS011;10839;43.206;23.550;2023-02-15T17:07:48;54.50;;;26.90;;
21360;SDS011;10839;43.206;23.550;2023-02-15T17:10:36;53.00;;;25.50;;
21360;SDS011;10839;43.206;23.550;2023-02-15T17:13:16;50.70;;;26.02;;
21360;SDS011;10839;43.206;23.550;2023-02-15T17:15:43;42.95;;;22.13;;
21360;SDS011;10839;43.206;23.550;2023-02-15T17:18:47;48.65;;;24.77;;
21360;SDS011;10839;43.206;23.550;2023-02-15T17:21:17;60.17;;;29.90;;
21360;SDS011;10839;43.206;23.550;2023-02-15T17:23:49;58.60;;;29.15;;
21360;SDS011;10839;43.206;23.550;2023-02-15T17:26:21;53.08;;;25.80;;
21360;SDS011;10839;43.206;23.550;2023-02-15T17:28:51;45.70;;;21.67;;
21360;SDS011;10839;43.206;23.550;2023-02-15T17:31:21;45.00;;;22.88;;
21360;SDS011;10839;43.206;23.550;2023-02-15T17:33:54;46.47;;;21.80;;
21360;SDS011;10839;43.206;23.550;2023-02-15T17:36:22;37.05;;;19.20;;
21360;SDS011;10839;43.206;23.550;2023-02-15T17:41:34;33.35;;;17.98;;
21360;SDS011;10839;43.206;23.550;2023-02-15T17:44:02;33.50;;;17.05;;
21360;SDS011;10839;43.206;23.550;2023-02-15T17:46:30;39.60;;;18.80;;
21360;SDS011;10839;43.206;23.550;2023-02-15T17:49:00;36.13;;;18.63;;
21360;SDS011;10839;43.206;23.550;2023-02-15T17:51:26;44.90;;;20.23;;
21360;SDS011;10839;43.206;23.550;2023-02-15T17:53:53;42.30;;;20.98;;
21360;SDS011;10839;43.206;23.550;2023-02-15T17:56:37;40.28;;;19.27;;
21360;SDS011;10839;43.206;23.550;2023-02-15T17:59:03;42.30;;;20.98;;
21360;SDS011;10839;43.206;23.550;2023-02-15T18:01:34;43.80;;;19.27;;
21360;SDS011;10839;43.206;23.550;2023-02-15T18:04:20;46.90;;;23.80;;
21360;SDS011;10839;43.206;23.550;2023-02-15T18:07:07;45.28;;;21.92;;
21360;SDS011;10839;43.206;23.550;2023-02-15T18:09:52;46.50;;;22.65;;
21360;SDS011;10839;43.206;23.550;2023-02-15T18:12:37;50.30;;;23.63;;
21360;SDS011;10839;43.206;23.550;2023-02-15T18:15:03;48.05;;;22.42;;
21360;SDS011;10839;43.206;23.550;2023-02-15T18:17:43;40.55;;;19.90;;
21360;SDS011;10839;43.206;23.550;2023-02-15T18:20:22;42.58;;;20.08;;
21360;SDS011;10839;43.206;23.550;2023-02-15T18:22:52;38.88;;;18.60;;
21360;SDS011;10839;43.206;23.550;2023-02-15T18:25:20;40.15;;;19.40;;
21360;SDS011;10839;43.206;23.550;2023-02-15T18:27:48;35.50;;;17.95;;